Terminal Aerodrome Forecast
Issued by NWS

Current Version | Previous Version | Text Only | Print | Product List | Glossary On
Versions: 1 2 3 4 5 6 7 8 9 10 11 12 13 14 15 16 17 18
000
FTUS44 KJAN 191137
TAFHKS
TAF
KHKS 191137Z 1912/2012 18006KT P6SM BKN009
     FM191600 23009KT P6SM BKN025
     FM191900 23009KT P6SM SCT050 BKN250
     FM192200 20009KT P6SM VCTS SCT050CB OVC250
     FM200600 23009KT P6SM OVC025=

USA.gov is the U.S. government's official web portal to all federal, state and local government web resources and services.